Alakanuk, Alaska
Current Conditions -  °F | °C
As of 8:36 PM on Wednesday 26 Nov 2014 (Local Time) from PAEM Reporting Station
Overcast Overcast  
Wind Chill: 15°   Ceiling: 4100
Heat Index: 27°   Visibility: 10mi
Dew Point: 19°   Wind: 15mph
Humidity: 74%   Direction: 110°ESE
Pressure: 30.14"   Gusts: 20mph
Location:  62.69°N, 164.62°W
Report Text: PAEM 270536Z AUTO 11013G17KT 10SM OVC041 M03/M07 A3014 RMK AO1
Loading
Personal Weather Stations






























Interactive Weather Map New forecast layout! Learn more

10-Day Weather Forecast

Advertisements
Track Severe Weather on mobile